Historyczne dane pomiarowe

Dodano dane terminowe – wersja testowa.

Dane z okresu 1951-2019

Wersja bazy: 1.34 [2019-03-16, lista zmian], aktualizacja planowana na 2019-04-15

Dane meteo z obszaru Polski uzyskane na podstawie danych udostępnionych przez Instytut Meteorologii i Gospodarki Wodnej – Państwowy Instytut Badawczy.

 

Wybierz Datę:    

       

TemperaturaWilgotnośćWiatrCiśnienieOpadyŚniegCzas trwania zjawisk
 Stacja t tx tn tng RH VA  wxwx mslp ppp RRR   cm mm wxwxwxwxwxwxwx
1961-08-14 14.5 19.8 8.1 5.0 79.3- 6.7 3.3---- 2.6------------
1961-08-13 14.6 18.3 11.9 10.6 74.0- 6.0 6.0---- 0.0------------
1961-08-12 16.8 22.4 14.5 12.1 83.5- 7.0 3.7---- 0.0------------
1961-08-11 16.5 19.2 16.1 16.2 97.0- 6.3 2.7---- 7.4------------
1961-08-10 20.3 26.4 16.5 14.9 87.3- 7.0 3.7---- 2.6------------
1961-08-09 19.8 24.1 15.6 12.2 77.8- 5.3 3.0---- 0.0------------
1961-08-08 18.5 22.4 8.8 5.4 81.3- 4.3 2.3---- 0.0------------
1961-08-07 17.0 21.2 15.6 15.1 93.0- 7.3 2.3---- 2.8------------
1961-08-06 21.9 30.2 16.2 9.2 79.8- 3.7 3.0---- 5.9------------
1961-08-05 19.1 24.7 14.0 6.5 84.5- 4.0 4.7---- 0.0------------
1961-08-04 14.8 17.6 7.6 4.3 83.3- 8.0 5.3---- 0.1------------
1961-08-03 13.4 18.7 11.2 10.4 88.0- 4.3 4.0---- 0.6------------
1961-08-02 15.5 22.1 9.3 5.6 88.8- 4.7 0.3---- 3.6------------
1961-08-01 14.3 20.0 11.3 10.9 88.5- 5.0 7.0---- 0.2------------
1961-07-31 13.1 14.6 12.5 13.5 95.8- 8.0 9.7---- 48.9------------
1961-07-30 14.8 17.5 11.1 9.5 90.3- 7.0 5.0---- 1.3------------
1961-07-29 14.3 18.0 11.5 11.0 81.0- 7.0 6.0---- 0.0------------
1961-07-28 15.1 19.3 13.8 12.1 93.3- 7.7 4.7---- 4.6------------
1961-07-27 19.2 24.0 14.5 12.0 75.8- 6.0 5.3---- 3.0------------
1961-07-26 18.5 23.6 11.7 10.2 71.3- 7.3 6.0---- 0.0------------
1961-07-25 13.9 17.6 12.1 10.7 83.3- 7.0 5.0---- 0.0------------
1961-07-24 13.9 16.4 11.6 9.0 80.5- 7.3 5.0---- 0.0------------
1961-07-23 13.7 17.3 12.5 11.9 87.3- 6.7 4.7---- 0.1------------
1961-07-22 15.5 19.0 13.8 12.9 83.5- 8.0 6.7---- 1.2------------
1961-07-21 15.0 17.6 14.0 13.0 91.5- 6.7 6.7---- 4.9------------
1961-07-20 16.3 20.2 10.3 7.9 78.8- 7.3 3.3---- 8.6------------
1961-07-19 14.7 19.0 11.2 9.5 88.8- 5.7 2.3---- 0.0------------
1961-07-18 13.9 19.7 12.5 12.1 90.3- 7.0 4.3---- 12.3------------
1961-07-17 14.1 18.3 9.4 6.6 90.8- 5.7 1.3---- 7.9------------
1961-07-16 16.3 21.7 14.6 13.5 81.3- 6.3 2.3---- 0.7------------
1961-07-15 17.8 23.4 13.0 11.5 71.0- 5.0 3.7---- 2.3------------
1961-07-14 15.6 18.9 13.4 11.7 71.5- 8.0 6.3---- 3.9------------
1961-07-13 19.9 28.0 16.2 15.7 82.0- 5.3 4.3---- 8.7------------
1961-07-12 20.8 27.2 14.8 13.0 74.0- 3.7 2.7---- 0.0------------
1961-07-11 16.5 21.8 8.9 6.7 77.8- 6.3 3.7---- 3.2------------
1961-07-10 13.4 17.3 11.0 9.8 75.8- 4.7 6.0---- 3.1------------
1961-07-09 13.7 17.9 11.9 8.9 93.5- 6.3 4.3---- 6.4------------
1961-07-08 16.3 22.3 9.3 6.2 69.5- 5.7 4.0---- 0.3------------
1961-07-07 13.4 17.0 9.6 7.8 75.5- 6.7 4.7---- 0.0------------
1961-07-06 12.2 17.1 6.9 4.5 88.5- 7.0 7.3---- 6.7------------
1961-07-05 12.4 17.7 10.3 9.5 74.8- 5.0 7.0---- 0.0------------
1961-07-04 16.2 24.0 14.6 12.0 86.5- 7.0 3.7---- 4.4------------
1961-07-03 24.7 34.0 16.5 11.9 60.0- 3.3 5.3---- 0.0------------
1961-07-02 24.4 31.9 12.7 9.0 56.5- 0.0 1.0---- 0.0------------
1961-07-01 22.8 28.7 12.3 14.0 53.8- 0.3 1.3---- 0.0------------
1961-06-30 21.1 26.9 10.3 6.2 54.3- 0.7 3.3---- 0.0------------
1961-06-29 16.9 22.3 10.8 8.5 65.3- 2.0 4.7---- 0.0------------
1961-06-28 15.2 20.4 13.0 12.0 60.3- 5.0 7.7---- 0.0------------
1961-06-27 22.0 28.1 17.1 13.5 75.0- 5.0 3.7---- 0.0------------
1961-06-26 23.0 29.1 14.2 10.2 56.8- 1.7 2.0---- 0.0------------
1961-06-25 22.5 29.6 13.2 9.9 57.5- 2.0 4.3---- 0.0------------
1961-06-24 18.9 25.2 11.5 8.0 64.0- 6.3 5.3---- 0.0------------
1961-06-23 17.8 22.7 15.6 13.1 62.3- 2.0 6.0---- 0.0------------
1961-06-22 18.1 23.0 6.8 2.4 62.3- 2.0 3.7---- 0.0------------
1961-06-21 15.4 22.2 8.7 4.4 61.5- 4.3 4.0---- 0.0------------
1961-06-20 15.2 20.4 8.5 5.5 53.0- 0.7 4.0---- 0.0------------
1961-06-19 16.6 21.7 15.2 14.9 61.0- 4.3 5.3---- 0.0------------
1961-06-18 21.5 28.2 12.4 9.5 60.5- 2.3 5.0---- 0.1------------
1961-06-17 18.1 23.4 7.7 4.1 67.8- 3.7 4.0---- 0.0------------
1961-06-16 13.5 19.9 8.2 6.2 75.8- 4.3 4.3---- 0.0------------
269.8 ms

 

Źródłem pochodzenia danych jest Instytut Meteorologii i Gospodarki Wodnej – Państwowy Instytut Badawczy. Dane Instytutu Meteorologii i Gospodarki Wodnej – Państwowego Instytutu Badawczego zostały przetworzone.

Dane źródłowe można odnaleźć na stronie https://dane.imgw.pl